Flight Track Log - Related Links

Times and Time Zones

All times are in EDT time to prevent confusion due to time zone crossing. See the TAM3548 flight status page for this flight to view local times or setup timezone preferences in your user account.

Time Position Orientation Groundspeed Altitude Reporting Facility
EDT Latitude Longitude Course Direction KTS MPH feet Rate Location/Type
Wed 02:47:20 PM -23.4270 -46.4570 73° East 167 192 2,600  Level FlightAware ADS-B
Wed 02:47:50 PM -23.4200 -46.4320 71° East 176 203 3,700 1,500 Climbing FlightAware ADS-B
Wed 02:48:20 PM -23.4100 -46.4010 75° East 219 252 4,100 960 Climbing FlightAware ADS-B
Wed 02:48:40 PM -23.4030 -46.3730 72° East 261 300 4,500 2,073 Climbing FlightAware ADS-B
Wed 02:49:15 PM -23.3900 -46.3300 70° East 276 318 6,000 2,400 Climbing FlightAware ADS-B
Wed 02:49:20 PM -23.3880 -46.3240 72° East 278 320 6,100 2,400 Climbing FlightAware ADS-B
Wed 02:49:55 PM -23.3740 -46.2770 59° Northeast 292 336 7,600 2,520 Climbing FlightAware ADS-B
Wed 02:50:10 PM -23.3620 -46.2550 38° Northeast 299 344 8,200 2,200 Climbing FlightAware ADS-B
Wed 02:50:25 PM -23.3490 -46.2440 21° North 300 345 8,700 1,680 Climbing FlightAware ADS-B
Wed 02:50:35 PM -23.3370 -46.2390 14° North 299 344 8,900 2,073 Climbing FlightAware ADS-B
Wed 02:51:20 PM -23.2750 -46.2220 14° North 317 365 10,600 1,835 Climbing FlightAware ADS-B
Wed 02:52:00 PM -23.2090 -46.2040 14° North 359 413 11,500 1,765 Climbing FlightAware ADS-B
Wed 02:52:45 PM -23.1430 -46.1860 16° North 371 427 13,100 2,400 Climbing FlightAware ADS-B
Wed 02:53:25 PM -23.0700 -46.1630 19° North 378 435 14,900 2,550 Climbing FlightAware ADS-B
Wed 02:54:05 PM -23.0050 -46.1380 19° North 381 438 16,500 1,976 Climbing FlightAware ADS-B
Wed 02:54:50 PM -22.9240 -46.1070 19° North 402 463 17,700 1,694 Climbing FlightAware ADS-B
Wed 02:55:30 PM -22.8510 -46.0790 20° North 415 478 18,900 1,765 Climbing FlightAware ADS-B
Wed 02:56:15 PM -22.7740 -46.0490 19° North 422 486 20,200 1,875 Climbing FlightAware ADS-B
Wed 02:56:50 PM -22.7010 -46.0210 19° North 425 489 21,400 1,835 Climbing FlightAware ADS-B
Wed 02:57:40 PM -22.6120 -45.9870 20° North 430 495 22,800 1,467 Climbing FlightAware ADS-B
Wed 02:58:20 PM -22.5340 -45.9570 19° North 441 507 23,600 1,275 Climbing FlightAware ADS-B
Wed 02:59:00 PM -22.4610 -45.9300 20° North 446 513 24,500 1,482 Climbing FlightAware ADS-B
Wed 02:59:45 PM -22.3700 -45.8950 19° North 451 519 25,700 1,624 Climbing FlightAware ADS-B
Wed 03:00:25 PM -22.2880 -45.8640 19° North 449 517 26,800 1,650 Climbing FlightAware ADS-B
Wed 03:01:05 PM -22.2170 -45.8370 20° North 441 507 27,900 1,341 Climbing FlightAware ADS-B
Wed 03:01:50 PM -22.1320 -45.8040 19° North 445 512 28,700 1,482 Climbing FlightAware ADS-B
Wed 03:02:30 PM -22.0500 -45.7740 20° North 431 496 30,000 1,600 Climbing FlightAware ADS-B
Wed 03:03:05 PM -21.9770 -45.7460 19° North 430 495 30,700 918 Climbing FlightAware ADS-B
Wed 03:03:55 PM -21.8920 -45.7140 19° North 437 503 31,300 867 Climbing FlightAware ADS-B
Wed 03:04:35 PM -21.8150 -45.6850 19° North 437 503 32,000 988 Climbing FlightAware ADS-B
Wed 03:05:20 PM -21.7330 -45.6540 19° North 438 504 32,700 706 Climbing FlightAware ADS-B
Wed 03:06:00 PM -21.6540 -45.6240 19° North 447 514 33,000 212 Climbing FlightAware ADS-B
Wed 03:06:45 PM -21.5720 -45.5930 22° Northeast 451 519 33,000  Level FlightAware ADS-B
Wed 03:07:25 PM -21.4920 -45.5580 30° Northeast 458 527 33,000  Level FlightAware ADS-B
Wed 03:08:10 PM -21.4090 -45.5060 33° Northeast 460 529 33,000  Level FlightAware ADS-B
Wed 03:08:50 PM -21.3330 -45.4530 33° Northeast 459 528 33,000 825 Level FlightAware ADS-B
Wed 03:09:30 PM -21.2600 -45.4020 32° Northeast 449 517 34,100 988 Climbing FlightAware ADS-B
Wed 03:10:15 PM -21.1800 -45.3480 33° Northeast 455 524 34,400 635 Climbing FlightAware ADS-B
Wed 03:10:55 PM -21.1150 -45.3030 32° Northeast 453 521 35,000 600 Climbing FlightAware ADS-B
Wed 03:11:35 PM -21.0450 -45.2560 32° Northeast 462 532 35,200 494 Climbing FlightAware ADS-B
Wed 03:12:20 PM -20.9730 -45.2070 33° Northeast 462 532 35,700 988 Climbing FlightAware ADS-B
Wed 03:13:00 PM -20.8860 -45.1470 32° Northeast 457 526 36,600 847 Climbing FlightAware ADS-B
Wed 03:13:45 PM -20.8100 -45.0960 33° Northeast 455 524 36,900 282 Climbing FlightAware ADS-B
Wed 03:14:25 PM -20.7400 -45.0480 33° Northeast 457 526 37,000 141 Climbing FlightAware ADS-B
Wed 03:15:10 PM -20.6580 -44.9910 33° Northeast 454 522 37,100 71 Climbing FlightAware ADS-B
Wed 03:15:50 PM -20.5950 -44.9470 33° Northeast 454 522 37,100 71 Level FlightAware ADS-B
Wed 03:16:35 PM -20.5310 -44.9030 33° Northeast 454 522 37,200 141 Climbing FlightAware ADS-B
Wed 03:17:15 PM -20.4680 -44.8590 37° Northeast 454 522 37,300 -2 Climbing FlightAware ADS-B
Wed 03:25:00 PM -19.8029 -44.2808 37° Northeast  Level Estimated
Wed 03:26:00 PM -19.7169 -44.2066 37° Northeast  Level Estimated
Wed 03:27:00 PM -19.6309 -44.1324 37° Northeast  Level Estimated
Wed 03:28:00 PM -19.5449 -44.0583 37° Northeast  Level Estimated
Wed 03:29:00 PM -19.4589 -43.9843 37° Northeast  Level Estimated
Wed 03:30:00 PM -19.3728 -43.9104 37° Northeast  Level Estimated
Wed 03:31:00 PM -19.2867 -43.8365 36° Northeast  Level Estimated
Wed 03:32:00 PM -19.2005 -43.7628 36° Northeast  Level Estimated
Wed 03:33:00 PM -19.1143 -43.6891 36° Northeast  Level Estimated
Wed 03:34:00 PM -19.0282 -43.6155 36° Northeast  Level Estimated
Wed 03:35:00 PM -18.9419 -43.5419 36° Northeast  Level Estimated
Wed 03:36:00 PM -18.8557 -43.4684 36° Northeast  Level Estimated
Wed 03:37:00 PM -18.7730 -43.3982 36° Northeast  Level Estimated
Wed 03:38:00 PM -18.6904 -43.3279 36° Northeast  Level Estimated
Wed 03:39:00 PM -18.6077 -43.2578 36° Northeast  Level Estimated
Wed 03:40:00 PM -18.5250 -43.1877 36° Northeast  Level Estimated
Wed 03:41:00 PM -18.4423 -43.1177 36° Northeast  Level Estimated
Wed 03:42:00 PM -18.3595 -43.0478 36° Northeast  Level Estimated
Wed 03:43:00 PM -18.2768 -42.9779 36° Northeast  Level Estimated
Wed 03:44:00 PM -18.1939 -42.9081 36° Northeast  Level Estimated
Wed 03:45:00 PM -18.1111 -42.8384 36° Northeast  Level Estimated
Wed 03:46:00 PM -18.0282 -42.7687 36° Northeast  Level Estimated
Wed 03:47:00 PM -17.9454 -42.6991 36° Northeast  Level Estimated
Wed 03:48:00 PM -17.8625 -42.6296 36° Northeast  Level Estimated
Wed 03:49:00 PM -17.7795 -42.5601 36° Northeast  Level Estimated
Wed 03:50:00 PM -17.6966 -42.4907 36° Northeast  Level Estimated
Wed 03:51:00 PM -17.6136 -42.4213 35° Northeast  Level Estimated
Wed 03:52:00 PM -17.5306 -42.3520 35° Northeast  Level Estimated
Wed 03:53:00 PM -17.4476 -42.2828 35° Northeast  Level Estimated
Wed 03:54:00 PM -17.3645 -42.2136 35° Northeast  Level Estimated
Wed 03:55:00 PM -17.2815 -42.1445 35° Northeast  Level Estimated
Wed 03:56:00 PM -17.1984 -42.0755 35° Northeast  Level Estimated
Wed 03:57:00 PM -17.1152 -42.0065 35° Northeast  Level Estimated
Wed 03:58:00 PM -17.0321 -41.9376 35° Northeast  Level Estimated
Wed 03:59:00 PM -16.9489 -41.8688 35° Northeast  Level Estimated
Wed 04:00:00 PM -16.8657 -41.8000 35° Northeast  Level Estimated
Wed 04:01:00 PM -16.7825 -41.7313 35° Northeast  Level Estimated
Wed 04:02:00 PM -16.6993 -41.6626 35° Northeast  Level Estimated
Wed 04:03:00 PM -16.6160 -41.5940 35° Northeast  Level Estimated
Wed 04:04:00 PM -16.5327 -41.5254 35° Northeast  Level Estimated
Wed 04:05:00 PM -16.4494 -41.4569 35° Northeast  Level Estimated
Wed 04:06:00 PM -16.3661 -41.3885 35° Northeast  Level Estimated
Wed 04:07:00 PM -16.2828 -41.3201 35° Northeast  Level Estimated
Wed 04:08:00 PM -16.1994 -41.2518 34° Northeast  Level Estimated
Wed 04:09:00 PM -16.1160 -41.1836 34° Northeast  Level Estimated
Wed 04:10:00 PM -16.0326 -41.1154 34° Northeast  Level Estimated
Wed 04:11:00 PM -15.9492 -41.0472 34° Northeast  Level Estimated
Wed 04:12:00 PM -15.8657 -40.9791 34° Northeast  Level Estimated
Wed 04:13:00 PM -15.7822 -40.9111 34° Northeast  Level Estimated
Wed 04:14:00 PM -15.6987 -40.8432 34° Northeast  Level Estimated
Wed 04:15:00 PM -15.6152 -40.7752 34° Northeast  Level Estimated
Wed 04:16:00 PM -15.5316 -40.7074 34° Northeast  Level Estimated
Wed 04:17:00 PM -15.4481 -40.6396 34° Northeast  Level Estimated
Wed 04:18:00 PM -15.3645 -40.5718 34° Northeast  Level Estimated
Wed 04:19:00 PM -15.2809 -40.5041 34° Northeast  Level Estimated
Wed 04:20:00 PM -15.1973 -40.4365 34° Northeast  Level Estimated
Wed 04:21:00 PM -15.1137 -40.3689 33° Northeast  Level Estimated
Wed 04:22:00 PM -15.0300 -40.3013 33° Northeast  Level Estimated
Wed 04:23:00 PM -14.9463 -40.2339 33° Northeast  Level Estimated
Wed 04:24:00 PM -14.8626 -40.1664 33° Northeast  Level Estimated
Wed 04:25:00 PM -14.7789 -40.0990 33° Northeast  Level Estimated
Wed 04:26:00 PM -14.6952 -40.0317 33° Northeast  Level Estimated
Wed 04:27:00 PM -14.6114 -39.9644 33° Northeast  Level Estimated
Wed 04:28:00 PM -14.5276 -39.8972 33° Northeast  Level Estimated
Wed 04:29:00 PM -14.4438 -39.8301 33° Northeast  Level Estimated
Wed 04:30:00 PM -14.3600 -39.7629 32° Northeast  Level Estimated
Wed 04:31:00 PM -14.2761 -39.6959 32° Northeast  Level Estimated
Wed 04:32:00 PM -14.1923 -39.6288 32° Northeast  Level Estimated
Wed 04:33:00 PM -14.1084 -39.5619 32° Northeast  Level Estimated
Wed 04:34:00 PM -14.0245 -39.4949 32° Northeast  Level Estimated
Wed 04:35:00 PM -13.9406 -39.4281 32° Northeast  Level Estimated
Wed 04:36:00 PM -13.8567 -39.3613 32° Northeast  Level Estimated
Wed 04:37:00 PM -13.7727 -39.2945 32° Northeast  Level Estimated
Wed 04:38:00 PM -13.6888 -39.2277 31° Northeast  Level Estimated
Wed 04:39:00 PM -13.6048 -39.1611 31° Northeast  Level Estimated
Wed 04:40:00 PM -13.5208 -39.0944 31° Northeast  Level Estimated
Wed 04:41:00 PM -13.4368 -39.0278 31° Northeast  Level Estimated
Wed 04:42:00 PM -13.3527 -38.9613 31° Northeast  Level Estimated
Wed 04:43:00 PM -13.2687 -38.8948 30° Northeast  Level Estimated
Wed 04:44:00 PM -13.1846 -38.8284 30° Northeast  Level Estimated
Wed 04:45:00 PM -13.1005 -38.7620 30° Northeast  Level Estimated
Wed 04:46:00 PM -13.0164 -38.6956 30° Northeast  Level Estimated
Wed 04:47:00 PM -12.9323 -38.6293 30° Northeast  Level Estimated
Wed 04:48:00 PM -12.8481 -38.5630 29° Northeast  Level Estimated
Wed 04:49:00 PM -12.7640 -38.4968 29° Northeast  Level Estimated
Wed 04:50:00 PM -12.6798 -38.4306 29° Northeast  Level Estimated
Wed 04:51:00 PM -12.5956 -38.3645 28° Northeast  Level Estimated
Wed 04:52:00 PM -12.5114 -38.2984 28° Northeast  Level Estimated
Wed 04:53:00 PM -12.4272 -38.2323 28° Northeast  Level Estimated
Wed 04:54:00 PM -12.3429 -38.1663 27° Northeast  Level Estimated
Wed 04:55:00 PM -12.2587 -38.1004 27° Northeast  Level Estimated
Wed 04:56:00 PM -12.1744 -38.0345 27° Northeast  Level Estimated
Wed 04:57:00 PM -12.0901 -37.9686 26° Northeast  Level Estimated
Wed 04:58:00 PM -9.7700 -36.8130 45° Northeast 465 535 37,000  Level FlightAware ADS-B
Wed 04:58:45 PM -9.7120 -36.7550 44° Northeast 465 535 37,000  Level FlightAware ADS-B
Wed 04:59:25 PM -9.6560 -36.7010 44° Northeast 465 535 37,000  Level FlightAware ADS-B
Wed 05:00:10 PM -9.5730 -36.6200 44° Northeast 468 539 37,000  Level FlightAware ADS-B
Wed 05:00:50 PM -9.4990 -36.5470 44° Northeast 467 537 37,000  Level FlightAware ADS-B
Wed 05:01:35 PM -9.4290 -36.4780 44° Northeast 468 539 37,000  Level FlightAware ADS-B
Wed 05:02:10 PM -9.3780 -36.4280 44° Northeast 468 539 37,000  Level FlightAware ADS-B
Wed 05:02:55 PM -9.3190 -36.3710 44° Northeast 468 539 37,000 -565 Level FlightAware ADS-B
Wed 05:03:35 PM -9.2490 -36.3020 44° Northeast 455 524 36,200 -1,650 Descending FlightAware ADS-B
Wed 05:04:15 PM -9.1870 -36.2420 44° Northeast 444 511 34,800 -2,850 Descending FlightAware ADS-B
Wed 05:04:55 PM -9.1220 -36.1790 44° Northeast 450 518 32,400 -3,533 Descending FlightAware ADS-B
Wed 05:05:45 PM -9.0480 -36.1070 44° Northeast 462 532 29,500 -3,600 Descending FlightAware ADS-B
Wed 05:06:25 PM -8.9850 -36.0450 44° Northeast 464 534 27,000 -3,225 Descending FlightAware ADS-B
Wed 05:07:05 PM -8.9240 -35.9850 44° Northeast 443 510 25,200 -2,600 Descending FlightAware ADS-B
Wed 05:07:55 PM -8.8510 -35.9140 43° Northeast 450 518 23,100 -2,533 Descending FlightAware ADS-B
Wed 05:08:35 PM -8.7920 -35.8580 44° Northeast 454 522 21,400 -2,400 Descending FlightAware ADS-B
Wed 05:09:15 PM -8.7350 -35.8020 44° Northeast 438 504 19,900 -2,259 Descending FlightAware ADS-B
Wed 05:10:00 PM -8.6710 -35.7400 44° Northeast 428 493 18,200 -2,329 Descending FlightAware ADS-B
Wed 05:10:40 PM -8.6110 -35.6820 44° Northeast 429 494 16,600 -2,325 Descending FlightAware ADS-B
Wed 05:11:20 PM -8.5520 -35.6240 44° Northeast 423 487 15,100 -2,400 Descending FlightAware ADS-B
Wed 05:12:00 PM -8.4960 -35.5700 44° Northeast 403 464 13,400 -2,188 Descending FlightAware ADS-B
Wed 05:12:45 PM -8.4420 -35.5180 44° Northeast 384 442 12,000 -1,694 Descending FlightAware ADS-B
Wed 05:13:25 PM -8.3910 -35.4680 44° Northeast 367 422 11,000 -1,200 Descending FlightAware ADS-B
Wed 05:13:55 PM -8.3530 -35.4310 44° Northeast 346 398 10,600 -686 Descending FlightAware ADS-B
Wed 05:14:35 PM -8.3120 -35.3910 43° Northeast 323 372 10,200 -857 Descending FlightAware ADS-B
Wed 05:15:05 PM -8.2770 -35.3580 45° Northeast 309 356 9,600 -1,309 Descending FlightAware ADS-B
Wed 05:15:30 PM -8.2510 -35.3320 42° Northeast 308 354 9,000 -1,500 Descending FlightAware ADS-B
Wed 05:15:45 PM -8.2400 -35.3220 44° Northeast 309 356 8,600 -1,733 Descending FlightAware ADS-B
Wed 05:16:15 PM -8.2030 -35.2860 43° Northeast 309 356 7,700 -1,527 Descending FlightAware ADS-B
Wed 05:16:40 PM -8.1820 -35.2660 45° Northeast 306 352 7,200 -1,560 Descending FlightAware ADS-B
Wed 05:17:05 PM -8.1540 -35.2380 43° Northeast 302 348 6,400 -1,467 Descending FlightAware ADS-B
Wed 05:17:25 PM -8.1370 -35.2220 45° Northeast 297 342 6,100 -1,333 Descending FlightAware ADS-B
Wed 05:17:50 PM -8.1090 -35.1940 42° Northeast 290 334 5,400 -1,350 Descending FlightAware ADS-B
Wed 05:18:05 PM -8.0970 -35.1830 44° Northeast 283 326 5,200 -1,467 Descending FlightAware ADS-B
Wed 05:18:35 PM -8.0660 -35.1530 43° Northeast 280 322 4,300 -1,636 Descending FlightAware ADS-B
Wed 05:19:00 PM -8.0430 -35.1310 43° Northeast 273 314 3,700 -1,680 Descending FlightAware ADS-B
Wed 05:19:25 PM -8.0200 -35.1090 57° Northeast 277 319 2,900 -1,200 Descending FlightAware ADS-B
Wed 05:20:00 PM -7.9990 -35.0760 65° Northeast 251 289 2,500 -600 Descending FlightAware ADS-B
Wed 05:20:25 PM -7.9870 -35.0500 62° Northeast 233 268 2,300 -545 Descending FlightAware ADS-B
Wed 05:20:55 PM -7.9720 -35.0210 67° East 209 241 2,000 -436 Descending FlightAware ADS-B
Wed 05:21:20 PM -7.9630 -35.0000 62° Northeast 194 223 1,900 -109 Descending FlightAware ADS-B
Wed 05:21:50 PM -7.9510 -34.9770 106° East 185 213 1,900  Level FlightAware ADS-B
Wed 05:22:35 PM -7.9600 -34.9460 171° South 176 203 1,900  Level FlightAware ADS-B
Wed 05:22:45 PM -7.9660 -34.9450 189° South 176 203 1,900  Level FlightAware ADS-B
Wed 05:23:15 PM -7.9900 -34.9490 192° South 178 205 1,900 -100 Level FlightAware ADS-B
Wed 05:23:45 PM -8.0130 -34.9540 174° South 144 166 1,800 -375 Descending FlightAware ADS-B
Wed 05:24:35 PM -8.0430 -34.9510 159° South 127 146 1,400 -560 Descending FlightAware ADS-B
Wed 05:25:00 PM -8.0560 -34.9460 163° South 124 143 1,100 -700 Descending FlightAware ADS-B
Wed 05:25:35 PM -8.0760 -34.9400 161° South 126 145 700 -700 Descending FlightAware ADS-B
Wed 05:26:00 PM -8.0900 -34.9350 163° South 123 142 400 -600 Descending FlightAware ADS-B
Wed 05:26:25 PM -8.1030 -34.9310 163° South 124 143 200 -480 Descending FlightAware ADS-B
Wed 05:34:00 PM -8.8708 -34.6883 343° North  Level Estimated
Wed 05:35:00 PM -8.7695 -34.7204 343° North  Level Estimated
Wed 05:36:00 PM -8.6683 -34.7524 343° North  Level Estimated
Wed 05:37:00 PM -8.5671 -34.7845 343° North  Level Estimated
Wed 05:38:00 PM -8.4658 -34.8165 343° North  Level Estimated
Wed 05:39:00 PM -8.3646 -34.8484 343° North  Level Estimated
Wed 05:40:00 PM -8.2633 -34.8804 343° North  Level Estimated
Wed 05:41:00 PM -8.1621 -34.9124 343° North  Level Estimated
Wed 05:42:00 PM -8.0608 -34.9443 163° South  Level Estimated
Wed 05:43:00 PM -8.1621 -34.9124 343° North  Level Estimated
Wed 05:44:00 PM -8.0608 -34.9443 163° South  Level Estimated
Wed 05:45:00 PM -8.1621 -34.9124 343° North  Level Estimated
Wed 05:46:00 PM -8.0608 -34.9443 163° South  Level Estimated
Wed 05:47:00 PM -8.1621 -34.9124 343° North  Level Estimated
Wed 05:48:00 PM -8.0608 -34.9443 163° South  Level Estimated
Wed 05:49:00 PM -8.1621 -34.9124 343° North  Level Estimated
Wed 05:50:00 PM -8.0608 -34.9443 163° South  Level Estimated
Wed 05:51:00 PM -8.1621 -34.9124 343° North  Level Estimated
Wed 05:52:00 PM -8.0608 -34.9443 163° South  Level Estimated
Wed 05:53:00 PM -8.1621 -34.9124 343° North  Level Estimated
Wed 05:54:00 PM -8.0608 -34.9443 163° South  Level Estimated
Wed 05:55:00 PM -8.1621 -34.9124 343° North  Level Estimated
Wed 05:56:00 PM -8.0608 -34.9443 163° South  Level Estimated
Wed 05:57:00 PM -8.1621 -34.9124 343° North  Level Estimated
Wed 05:58:00 PM -8.0608 -34.9443 163° South  Level Estimated
Wed 05:59:00 PM -8.1621 -34.9124 343° North  Level Estimated
Wed 06:00:00 PM -8.0608 -34.9443 163° South  Level Estimated
Wed 06:01:00 PM -8.1621 -34.9124 163° South  Level Estimated

Login

Don't have an account? Register now (free) for customized features, flight alerts, and more!